Time;durP1;ratioP1;P1;durP2;ratioP2;P2;SDS_P1;SDS_P2;PMS_P1;PMS_P2;Temp;Humidity;BMP_temperature;BMP_pressure;BME280_temperature;BME280_humidity;BME280_pressure;Samples;Min_cycle;Max_cycle;Signal;HPM_P1;HPM_P2
2022/08/28 00:02:08;;;;;;;15.77;3.93;;;16.10;99.90;;;;;;5016763;28;20566;-82
2022/08/28 00:04:34;;;;;;;15.73;4.13;;;16.10;99.90;;;;;;5017263;28;20170;-82
2022/08/28 00:07:01;;;;;;;18.33;4.07;;;16.10;99.90;;;;;;5016165;28;20569;-81
2022/08/28 00:09:26;;;;;;;15.47;4.80;;;16.10;99.90;;;;;;5014926;28;20244;-81
2022/08/28 00:11:53;;;;;;;18.00;4.73;;;16.00;99.90;;;;;;5015876;28;20163;-81
2022/08/28 00:14:20;;;;;;;14.57;4.17;;;16.10;99.90;;;;;;5015124;28;20169;-81
2022/08/28 00:16:50;;;;;;;17.43;4.70;;;16.00;99.90;;;;;;5017102;28;20182;-81
2022/08/28 00:19:17;;;;;;;16.63;4.73;;;16.00;99.90;;;;;;5019296;28;20238;-81
2022/08/28 00:21:43;;;;;;;14.93;4.60;;;16.00;99.90;;;;;;5018279;28;20182;-81
2022/08/28 00:24:09;;;;;;;11.37;4.10;;;16.10;99.90;;;;;;5019969;28;20261;-81
2022/08/28 00:29:19;;;;;;;16.07;4.13;;;16.20;99.90;;;;;;5037313;28;20204;-82
2022/08/28 00:31:44;;;;;;;23.13;4.60;;;16.10;99.90;;;;;;5019765;28;20257;-81
2022/08/28 00:34:10;;;;;;;18.20;5.03;;;16.00;99.90;;;;;;5017591;28;20177;-81
2022/08/28 00:36:37;;;;;;;23.80;4.90;;;16.00;99.90;;;;;;5019419;28;20686;-81
2022/08/28 00:39:04;;;;;;;15.00;5.43;;;16.10;99.90;;;;;;5019163;28;20173;-81
2022/08/28 00:41:31;;;;;;;11.13;4.50;;;16.10;99.90;;;;;;5018383;28;20726;-81
2022/08/28 00:44:20;;;;;;;14.77;5.00;;;16.20;99.90;;;;;;5018849;28;20166;-82
2022/08/28 00:46:48;;;;;;;11.53;4.63;;;16.10;99.90;;;;;;5017448;28;20190;-81
2022/08/28 00:49:18;;;;;;;18.67;5.73;;;16.00;99.90;;;;;;5017432;28;20190;-81
2022/08/28 00:54:32;;;;;;;21.07;4.90;;;16.00;99.90;;;;;;5037065;28;20181;-81
2022/08/28 00:57:01;;;;;;;15.47;4.60;;;15.90;99.90;;;;;;5016763;28;20186;-82
2022/08/28 00:59:27;;;;;;;20.83;5.23;;;15.70;99.90;;;;;;5018125;28;20173;-81
2022/08/28 01:01:56;;;;;;;17.70;5.00;;;15.70;99.90;;;;;;5018317;28;20177;-82
2022/08/28 01:04:24;;;;;;;18.23;5.03;;;15.70;99.90;;;;;;5017820;28;20171;-81
2022/08/28 01:06:52;;;;;;;20.97;5.60;;;15.60;99.90;;;;;;5017993;28;20246;-82
2022/08/28 01:09:20;;;;;;;12.67;4.67;;;15.70;99.90;;;;;;5020445;28;20198;-81
2022/08/28 01:11:47;;;;;;;11.03;4.30;;;15.60;99.90;;;;;;5020482;28;20181;-82
2022/08/28 01:14:17;;;;;;;17.60;4.93;;;15.60;99.90;;;;;;5020258;28;20166;-81
2022/08/28 01:16:43;;;;;;;15.50;4.67;;;15.60;99.90;;;;;;5019228;28;20189;-81
2022/08/28 01:19:17;;;;;;;19.10;5.10;;;15.60;99.90;;;;;;5020451;28;20242;-82
2022/08/28 01:21:54;;;;;;;17.27;5.20;;;15.40;99.90;;;;;;5038481;28;20181;-81
2022/08/28 01:24:22;;;;;;;19.67;5.37;;;15.40;99.90;;;;;;5018836;28;20169;-81
2022/08/28 01:26:48;;;;;;;16.70;4.93;;;15.30;99.90;;;;;;5034624;28;20213;-81
2022/08/28 01:29:13;;;;;;;20.97;5.53;;;15.30;99.90;;;;;;5016407;28;20605;-82
2022/08/28 01:31:40;;;;;;;15.37;5.00;;;15.40;99.90;;;;;;5016581;28;20170;-81
2022/08/28 01:34:08;;;;;;;18.83;5.50;;;15.40;99.90;;;;;;5017555;28;20189;-81
2022/08/28 01:36:34;;;;;;;15.17;5.40;;;15.40;99.90;;;;;;5020416;28;20193;-81
2022/08/28 01:39:12;;;;;;;22.00;5.33;;;15.30;99.90;;;;;;5016364;28;20240;-81
2022/08/28 01:41:41;;;;;;;16.47;4.60;;;15.20;99.90;;;;;;5033804;28;20166;-81
2022/08/28 01:44:07;;;;;;;15.33;4.40;;;15.10;99.90;;;;;;5016614;28;20162;-81
2022/08/28 01:46:33;;;;;;;21.07;5.80;;;15.20;99.90;;;;;;5015696;28;20190;-81
2022/08/28 01:48:59;;;;;;;16.87;5.10;;;15.30;99.90;;;;;;5015454;28;20176;-81
2022/08/28 01:51:25;;;;;;;20.80;4.60;;;15.30;99.90;;;;;;5033443;28;20174;-81
2022/08/28 01:53:51;;;;;;;26.50;5.70;;;15.20;99.90;;;;;;5014355;28;20200;-81
2022/08/28 01:56:16;;;;;;;14.33;4.63;;;15.20;99.90;;;;;;5014091;28;20185;-81
2022/08/28 01:58:42;;;;;;;20.63;5.33;;;15.20;99.90;;;;;;5014561;28;20166;-81
2022/08/28 02:01:14;;;;;;;14.57;5.00;;;15.20;99.90;;;;;;5013785;28;20921;-81
2022/08/28 02:03:41;;;;;;;17.03;5.20;;;15.20;99.90;;;;;;5012033;28;20174;-81
2022/08/28 02:06:08;;;;;;;15.37;5.40;;;15.20;99.90;;;;;;5013478;28;20684;-80
2022/08/28 02:08:35;;;;;;;13.63;4.73;;;15.30;99.90;;;;;;5013717;28;20174;-80
2022/08/28 02:11:02;;;;;;;14.77;5.30;;;15.20;99.90;;;;;;5013614;28;20678;-81
2022/08/28 02:13:27;;;;;;;16.40;4.83;;;15.20;99.90;;;;;;5014010;28;20163;-81
2022/08/28 02:15:53;;;;;;;19.20;5.37;;;15.10;99.90;;;;;;5013687;28;20193;-81
2022/08/28 02:18:19;;;;;;;16.90;4.70;;;15.00;99.90;;;;;;5013838;28;20204;-81
2022/08/28 02:20:45;;;;;;;20.00;5.20;;;15.10;99.90;;;;;;5013805;28;20194;-81
2022/08/28 02:23:11;;;;;;;16.83;4.73;;;15.00;99.90;;;;;;5014023;28;20178;-81
2022/08/28 02:25:38;;;;;;;16.50;5.67;;;14.90;99.90;;;;;;5013918;28;20178;-81
2022/08/28 02:28:04;;;;;;;26.80;5.43;;;14.90;99.90;;;;;;5013892;28;20177;-82
2022/08/28 02:30:29;;;;;;;21.00;5.47;;;14.80;99.90;;;;;;5013655;28;20186;-81
2022/08/28 02:32:55;;;;;;;12.87;5.57;;;14.90;99.90;;;;;;5014020;28;20177;-81
2022/08/28 02:35:21;;;;;;;15.63;5.07;;;14.80;99.90;;;;;;5013654;28;20166;-80
2022/08/28 02:37:48;;;;;;;16.67;5.60;;;14.80;99.90;;;;;;5031323;28;20267;-82
2022/08/28 02:40:19;;;;;;;23.20;5.80;;;14.80;99.90;;;;;;5012850;28;20634;-81
2022/08/28 02:42:45;;;;;;;22.27;5.47;;;14.60;99.90;;;;;;5031459;28;20180;-81
2022/08/28 02:45:12;;;;;;;13.90;5.20;;;14.60;99.90;;;;;;5013572;28;20170;-81
2022/08/28 02:47:39;;;;;;;18.80;5.73;;;14.70;99.90;;;;;;5014056;28;20286;-81
2022/08/28 02:50:06;;;;;;;17.00;5.33;;;14.60;99.90;;;;;;5014683;28;20205;-81
2022/08/28 02:52:34;;;;;;;15.40;5.40;;;14.50;99.90;;;;;;5015597;28;20180;-81
2022/08/28 02:55:00;;;;;;;19.87;5.47;;;14.50;99.90;;;;;;5014929;28;20166;-81
2022/08/28 02:57:26;;;;;;;12.17;5.13;;;14.50;99.90;;;;;;5015866;28;20251;-81
2022/08/28 02:59:51;;;;;;;20.30;5.97;;;14.40;99.90;;;;;;5017032;28;20581;-81
2022/08/28 03:02:17;;;;;;;17.13;6.23;;;14.40;99.90;;;;;;5015570;28;20177;-81
2022/08/28 03:04:43;;;;;;;19.47;6.07;;;14.40;99.90;;;;;;5016219;28;20176;-81
2022/08/28 03:07:12;;;;;;;17.80;6.10;;;14.40;99.90;;;;;;5016707;28;20208;-81
2022/08/28 03:09:40;;;;;;;18.27;5.70;;;14.30;99.90;;;;;;5015806;28;20186;-81
2022/08/28 03:12:07;;;;;;;20.50;6.20;;;14.30;99.90;;;;;;5015307;28;20176;-81
2022/08/28 03:14:32;;;;;;;17.67;6.10;;;14.30;99.90;;;;;;5014826;28;20222;-81
2022/08/28 03:17:00;;;;;;;18.93;6.10;;;14.30;99.90;;;;;;5014881;28;20194;-81
2022/08/28 03:19:25;;;;;;;21.63;5.60;;;14.20;99.90;;;;;;5015342;28;20584;-81
2022/08/28 03:21:51;;;;;;;15.83;5.87;;;14.10;99.90;;;;;;5014949;28;20740;-81
2022/08/28 03:24:17;;;;;;;13.90;5.70;;;14.00;99.90;;;;;;5015640;28;20174;-81
2022/08/28 03:26:43;;;;;;;16.57;5.73;;;14.00;99.90;;;;;;5016006;28;20199;-82
2022/08/28 03:29:09;;;;;;;16.93;5.50;;;14.10;99.90;;;;;;5016347;28;20189;-81
2022/08/28 03:31:37;;;;;;;16.57;5.73;;;14.20;99.90;;;;;;5015863;28;20178;-82
2022/08/28 03:34:04;;;;;;;27.03;6.03;;;14.00;99.90;;;;;;5015909;28;20173;-81
2022/08/28 03:36:30;;;;;;;17.03;6.17;;;14.10;99.90;;;;;;5015415;28;20608;-81
2022/08/28 03:38:59;;;;;;;21.00;5.90;;;14.00;99.90;;;;;;5017266;28;20165;-81
2022/08/28 03:41:27;;;;;;;15.50;6.13;;;14.00;99.90;;;;;;5017022;28;20247;-82
2022/08/28 03:43:56;;;;;;;16.80;6.07;;;14.10;99.90;;;;;;5016770;28;20240;-81
2022/08/28 03:46:23;;;;;;;20.67;6.27;;;14.00;99.90;;;;;;5016938;28;20190;-81
2022/08/28 03:48:49;;;;;;;18.00;5.83;;;14.10;99.90;;;;;;5016458;28;20172;-82
2022/08/28 03:51:34;;;;;;;21.17;6.17;;;14.10;99.90;;;;;;5015574;28;20247;-82
2022/08/28 03:54:01;;;;;;;18.80;6.40;;;14.00;99.90;;;;;;5018276;28;20166;-81
2022/08/28 03:56:29;;;;;;;18.37;5.67;;;13.80;99.90;;;;;;5019754;28;20236;-81
2022/08/28 03:58:57;;;;;;;20.03;6.50;;;13.80;99.90;;;;;;5019752;28;20181;-81
2022/08/28 04:01:24;;;;;;;15.03;6.10;;;13.80;99.90;;;;;;5019484;28;20173;-81
2022/08/28 04:03:49;;;;;;;20.67;6.73;;;13.70;99.90;;;;;;5019563;28;20180;-81
2022/08/28 04:06:15;;;;;;;14.70;6.00;;;13.80;99.90;;;;;;5020144;28;20201;-81
2022/08/28 04:08:41;;;;;;;21.70;6.50;;;13.70;99.90;;;;;;5019732;28;20220;-82
2022/08/28 04:11:07;;;;;;;18.23;6.20;;;13.70;99.90;;;;;;5019362;28;20677;-81
2022/08/28 04:13:33;;;;;;;19.03;6.27;;;13.60;99.90;;;;;;5019837;28;20179;-81
2022/08/28 04:16:09;;;;;;;14.47;6.57;;;13.60;99.90;;;;;;5019782;28;20275;-82
2022/08/28 04:18:36;;;;;;;20.30;6.30;;;13.40;99.90;;;;;;5018490;28;20196;-81
2022/08/28 04:21:15;;;;;;;17.60;6.60;;;13.40;99.90;;;;;;5019307;28;20224;-81
2022/08/28 04:23:42;;;;;;;19.23;6.70;;;13.50;99.90;;;;;;5019609;28;20641;-81
2022/08/28 04:26:09;;;;;;;17.33;6.67;;;13.60;99.90;;;;;;5019512;28;20186;-81
2022/08/28 04:28:35;;;;;;;20.23;6.40;;;13.60;99.90;;;;;;5019438;28;20231;-81
2022/08/28 04:31:01;;;;;;;13.17;6.70;;;13.60;99.90;;;;;;5018959;28;20206;-81
2022/08/28 04:33:28;;;;;;;19.63;7.20;;;13.60;99.90;;;;;;5019311;28;20197;-81
2022/08/28 04:35:54;;;;;;;15.10;7.17;;;13.40;99.90;;;;;;5018708;28;20186;-81
2022/08/28 04:38:20;;;;;;;17.60;6.63;;;13.30;99.90;;;;;;5018394;28;20173;-82
2022/08/28 04:40:46;;;;;;;23.90;6.83;;;13.30;99.90;;;;;;5018676;28;20192;-81
2022/08/28 04:43:12;;;;;;;26.60;6.80;;;13.30;99.90;;;;;;5018430;28;20230;-81
2022/08/28 04:45:39;;;;;;;16.97;6.87;;;13.40;99.90;;;;;;5018244;28;20178;-81
2022/08/28 04:48:05;;;;;;;19.77;7.00;;;13.40;99.90;;;;;;5018691;28;20172;-81
2022/08/28 04:50:31;;;;;;;21.07;7.10;;;13.40;99.90;;;;;;5036514;28;20292;-81
2022/08/28 04:52:57;;;;;;;18.03;7.23;;;13.50;99.90;;;;;;5016823;28;20260;-81
2022/08/28 04:55:23;;;;;;;21.40;7.03;;;13.40;99.90;;;;;;5017928;28;20161;-81
2022/08/28 04:57:48;;;;;;;15.97;7.17;;;13.30;99.90;;;;;;5017636;28;20219;-81
2022/08/28 05:00:15;;;;;;;15.43;6.70;;;13.30;99.90;;;;;;5015953;28;20173;-82
2022/08/28 05:02:41;;;;;;;18.57;6.83;;;13.40;99.90;;;;;;5016427;28;20197;-81
2022/08/28 05:05:07;;;;;;;18.53;6.60;;;13.40;99.90;;;;;;5017667;28;20176;-81
2022/08/28 05:07:33;;;;;;;22.27;7.63;;;13.50;99.90;;;;;;5017315;28;20250;-81
2022/08/28 05:09:59;;;;;;;20.23;7.23;;;13.40;99.90;;;;;;5017831;28;20250;-81
2022/08/28 05:12:25;;;;;;;17.37;7.50;;;13.30;99.90;;;;;;5017525;28;20451;-81
2022/08/28 05:14:51;;;;;;;18.23;7.07;;;13.40;99.90;;;;;;5017892;28;20184;-81
2022/08/28 05:17:16;;;;;;;25.13;7.70;;;13.40;99.90;;;;;;5017020;28;20785;-81
2022/08/28 05:19:42;;;;;;;22.40;6.80;;;13.40;99.90;;;;;;5036135;28;20638;-81
2022/08/28 05:22:08;;;;;;;21.03;7.10;;;13.40;99.90;;;;;;5018539;28;20173;-81
2022/08/28 05:24:38;;;;;;;18.53;6.73;;;13.40;99.90;;;;;;5019189;28;20170;-81
2022/08/28 05:27:04;;;;;;;18.10;7.03;;;13.40;99.90;;;;;;5018047;28;20194;-81
2022/08/28 05:29:30;;;;;;;21.13;7.47;;;13.50;99.90;;;;;;5018137;28;20201;-81
2022/08/28 05:31:56;;;;;;;14.93;6.80;;;13.60;99.90;;;;;;5018473;28;20546;-81
2022/08/28 05:34:22;;;;;;;20.47;6.87;;;13.60;99.90;;;;;;5018701;28;20699;-81
2022/08/28 05:36:47;;;;;;;15.70;6.50;;;13.60;99.90;;;;;;5018536;28;20206;-81
2022/08/28 05:39:13;;;;;;;13.87;7.07;;;13.80;99.90;;;;;;5018780;28;20214;-82
2022/08/28 05:41:42;;;;;;;17.63;6.67;;;13.80;99.90;;;;;;5018033;28;20658;-82
2022/08/28 05:44:12;;;;;;;20.83;6.40;;;14.00;99.90;;;;;;5018122;28;20168;-81
2022/08/28 05:46:40;;;;;;;21.93;6.23;;;14.10;99.90;;;;;;5018217;28;20213;-82
2022/08/28 05:49:06;;;;;;;17.40;6.53;;;14.10;99.90;;;;;;5018412;28;20185;-83
2022/08/28 05:51:34;;;;;;;17.07;6.37;;;14.20;99.90;;;;;;5036228;28;20263;-82
2022/08/28 05:54:01;;;;;;;19.47;5.67;;;14.30;99.90;;;;;;5017929;28;20181;-82
2022/08/28 05:56:28;;;;;;;20.97;5.97;;;14.50;99.90;;;;;;5017798;28;20216;-82
2022/08/28 05:58:55;;;;;;;14.20;5.60;;;14.70;99.90;;;;;;5017596;28;20224;-82
2022/08/28 06:01:27;;;;;;;10.30;5.33;;;14.80;99.90;;;;;;5017487;28;20592;-82
2022/08/28 06:03:59;;;;;;;21.10;6.07;;;14.70;99.90;;;;;;5017740;28;20170;-82
2022/08/28 06:06:28;;;;;;;14.07;5.63;;;14.80;99.90;;;;;;5015877;28;20198;-82
2022/08/28 06:09:07;;;;;;;12.33;5.03;;;15.10;99.90;;;;;;5015584;28;20182;-81
2022/08/28 06:11:33;;;;;;;15.77;5.60;;;15.50;99.90;;;;;;5014576;28;20193;-82
2022/08/28 06:14:01;;;;;;;13.87;4.80;;;15.70;99.90;;;;;;5014905;28;20185;-81
2022/08/28 06:16:27;;;;;;;19.13;5.03;;;16.20;99.90;;;;;;5016240;28;20186;-82
2022/08/28 06:18:54;;;;;;;17.10;5.17;;;16.10;99.90;;;;;;5015958;28;20178;-82
2022/08/28 06:21:20;;;;;;;13.83;4.63;;;16.50;99.90;;;;;;5016317;28;20196;-82
2022/08/28 06:23:45;;;;;;;14.00;5.00;;;16.60;99.90;;;;;;5016076;28;20173;-82
2022/08/28 06:26:11;;;;;;;11.13;4.70;;;17.00;99.90;;;;;;5015485;28;20194;-82
2022/08/28 06:28:37;;;;;;;12.85;4.47;;;17.00;99.90;;;;;;5016087;28;20178;-81
2022/08/28 06:31:04;;;;;;;10.80;4.18;;;16.40;99.90;;;;;;5014130;28;20247;-81
2022/08/28 06:33:30;;;;;;;14.25;4.93;;;16.50;99.90;;;;;;5012806;28;20224;-82
2022/08/28 06:35:55;;;;;;;10.98;4.07;;;16.90;99.90;;;;;;5014083;28;20197;-82
2022/08/28 06:38:24;;;;;;;12.60;4.45;;;16.70;99.90;;;;;;5013984;28;20514;-81
2022/08/28 06:40:55;;;;;;;14.30;4.32;;;17.20;99.90;;;;;;5014099;28;20817;-82
2022/08/28 06:43:24;;;;;;;11.18;4.40;;;17.90;99.90;;;;;;5013773;28;20673;-81
2022/08/28 06:45:53;;;;;;;13.35;4.10;;;17.60;99.90;;;;;;5013640;28;20185;-80
2022/08/28 06:48:22;;;;;;;10.65;4.00;;;17.90;99.90;;;;;;5013883;28;20170;-80
2022/08/28 06:50:49;;;;;;;11.68;4.38;;;18.60;99.90;;;;;;5012587;28;20200;-80
2022/08/28 06:53:16;;;;;;;11.25;4.72;;;18.20;99.90;;;;;;5014944;28;20253;-80
2022/08/28 06:55:42;;;;;;;9.82;3.97;;;18.70;99.90;;;;;;5016773;28;20564;-80
2022/08/28 06:58:10;;;;;;;10.45;3.95;;;19.10;99.90;;;;;;5017444;28;20228;-80
2022/08/28 07:00:37;;;;;;;8.88;4.05;;;19.10;99.90;;;;;;5026867;23;20176;-80
2022/08/28 07:03:04;;;;;;;8.00;3.40;;;19.50;99.90;;;;;;5055902;28;20181;-81
2022/08/28 07:05:32;;;;;;;10.30;3.90;;;19.60;99.90;;;;;;5037894;28;20223;-81
2022/08/28 07:07:58;;;;;;;8.00;3.88;;;19.90;99.90;;;;;;5019145;28;20193;-80
2022/08/28 07:10:23;;;;;;;10.63;3.70;;;20.00;99.90;;;;;;5018322;28;20661;-80
2022/08/28 07:12:49;;;;;;;10.13;3.03;;;19.80;99.90;;;;;;5018031;28;20227;-80
2022/08/28 07:15:17;;;;;;;14.10;3.55;;;20.30;99.90;;;;;;5017477;28;20166;-80
2022/08/28 07:17:43;;;;;;;9.93;3.45;;;20.40;99.90;;;;;;5017865;28;20217;-80
2022/08/28 07:20:10;;;;;;;10.77;3.38;;;20.50;99.90;;;;;;5017952;28;20205;-81
2022/08/28 07:22:36;;;;;;;8.27;2.95;;;20.90;99.90;;;;;;5017972;28;20174;-81
2022/08/28 07:25:03;;;;;;;11.82;3.35;;;21.00;99.90;;;;;;5017318;28;20307;-81
2022/08/28 07:27:30;;;;;;;8.43;3.22;;;20.70;99.90;;;;;;5018051;28;20569;-80
2022/08/28 07:29:57;;;;;;;7.53;3.22;;;21.10;99.90;;;;;;5018826;28;20204;-80
2022/08/28 07:32:23;;;;;;;7.95;3.55;;;21.20;99.90;;;;;;5018276;28;20170;-80
2022/08/28 07:34:50;;;;;;;7.35;2.97;;;21.40;99.90;;;;;;5018966;28;20177;-80
2022/08/28 07:37:16;;;;;;;8.13;3.22;;;21.60;99.90;;;;;;5018361;28;20194;-80
2022/08/28 07:39:43;;;;;;;9.65;3.00;;;21.80;99.90;;;;;;5019192;28;20550;-80
2022/08/28 07:44:47;;;;;;;12.10;3.10;;;22.20;99.90;;;;;;5019419;28;20205;-81
2022/08/28 07:44:58;;;;;;;10.88;2.75;;;22.80;99.90;;;;;;5036589;28;20182;-81
2022/08/28 07:47:30;;;;;;;11.40;2.88;;;22.60;99.90;;;;;;5017801;28;20205;-80
2022/08/28 07:49:59;;;;;;;9.93;3.08;;;22.20;99.90;;;;;;5018142;28;20680;-80
2022/08/28 07:52:26;;;;;;;15.02;2.97;;;22.40;99.90;;;;;;5017935;28;20174;-80
2022/08/28 07:54:51;;;;;;;8.95;2.47;;;22.30;99.90;;;;;;5017958;28;20193;-81
2022/08/28 07:57:19;;;;;;;6.18;2.50;;;22.60;99.80;;;;;;5017716;28;20658;-81
2022/08/28 07:59:45;;;;;;;7.57;2.75;;;22.40;99.70;;;;;;5018307;28;20189;-81
2022/08/28 08:02:11;;;;;;;4.38;2.08;;;22.60;99.30;;;;;;5017363;28;20642;-80
2022/08/28 08:04:36;;;;;;;7.70;2.72;;;22.30;99.10;;;;;;5017790;28;20182;-80
2022/08/28 08:07:03;;;;;;;7.43;2.78;;;22.40;98.40;;;;;;5017988;28;20189;-81
2022/08/28 08:09:29;;;;;;;9.65;2.70;;;22.20;99.00;;;;;;5017893;28;20205;-80
2022/08/28 08:11:55;;;;;;;6.13;2.28;;;23.10;98.00;;;;;;5017888;28;20170;-81
2022/08/28 08:14:21;;;;;;;7.82;2.63;;;23.40;97.20;;;;;;5018093;28;20174;-80
2022/08/28 08:16:47;;;;;;;11.43;2.47;;;23.90;96.90;;;;;;5018348;28;20210;-81
2022/08/28 08:19:15;;;;;;;6.53;2.78;;;23.90;96.30;;;;;;5017575;28;20257;-82
2022/08/28 08:21:47;;;;;;;11.68;2.60;;;22.90;95.80;;;;;;5017401;28;20171;-80
2022/08/28 08:24:19;;;;;;;8.50;2.75;;;22.40;96.30;;;;;;5018417;28;20178;-81
2022/08/28 08:26:46;;;;;;;6.60;2.22;;;22.90;96.80;;;;;;5017377;28;20190;-81
2022/08/28 08:29:13;;;;;;;10.25;2.67;;;22.50;96.50;;;;;;5016474;28;20201;-80
2022/08/28 08:31:39;;;;;;;12.60;3.08;;;22.90;96.40;;;;;;5017101;28;20200;-80
2022/08/28 08:34:07;;;;;;;4.88;2.38;;;23.30;96.00;;;;;;5017398;28;20170;-80
2022/08/28 08:36:34;;;;;;;7.35;2.53;;;23.90;95.20;;;;;;5015799;28;20237;-80
2022/08/28 08:39:00;;;;;;;6.88;2.42;;;24.00;94.60;;;;;;5019843;28;20170;-80
2022/08/28 08:41:46;;;;;;;8.93;2.45;;;23.70;94.30;;;;;;5020699;28;20232;-80
2022/08/28 08:44:41;;;;;;;9.05;2.50;;;24.20;94.00;;;;;;5020972;28;20241;-80
2022/08/28 08:47:18;;;;;;;7.18;2.42;;;24.60;93.40;;;;;;5020776;28;20257;-80
2022/08/28 08:49:53;;;;;;;5.72;2.13;;;23.60;93.90;;;;;;5020874;28;20197;-80
2022/08/28 08:52:34;;;;;;;6.20;2.42;;;23.60;94.00;;;;;;5020897;28;20177;-80
2022/08/28 08:55:33;;;;;;;9.43;2.70;;;24.20;93.40;;;;;;5020960;28;20170;-80
2022/08/28 08:58:11;;;;;;;9.65;2.30;;;23.60;93.10;;;;;;5020338;28;20701;-79
2022/08/28 09:01:08;;;;;;;7.55;2.53;;;23.60;93.10;;;;;;5038774;28;20189;-81
2022/08/28 09:04:09;;;;;;;6.10;2.85;;;22.70;94.20;;;;;;5020303;28;20264;-80
2022/08/28 09:07:02;;;;;;;4.80;2.67;;;22.40;94.60;;;;;;4992561;28;20202;-80
2022/08/28 09:09:28;;;;;;;7.15;2.65;;;22.10;94.80;;;;;;5019671;28;20205;-80
2022/08/28 09:12:09;;;;;;;7.25;2.30;;;22.30;94.50;;;;;;5037881;28;20365;-80
2022/08/28 09:14:35;;;;;;;8.15;2.53;;;23.00;94.10;;;;;;5020500;28;20170;-81
2022/08/28 09:17:01;;;;;;;8.65;2.55;;;23.60;93.90;;;;;;5020167;28;20217;-80
2022/08/28 09:19:27;;;;;;;6.40;2.22;;;24.30;92.70;;;;;;5020124;28;20249;-80
2022/08/28 09:21:52;;;;;;;7.15;2.13;;;24.50;93.10;;;;;;5019813;28;20704;-80
2022/08/28 09:24:23;;;;;;;7.55;2.33;;;23.70;92.50;;;;;;5019369;28;20174;-80
2022/08/28 09:27:00;;;;;;;8.20;2.22;;;23.80;92.70;;;;;;5019892;28;20293;-79
2022/08/28 09:29:52;;;;;;;4.32;2.10;;;24.70;92.20;;;;;;5019696;28;20170;-80
2022/08/28 09:32:29;;;;;;;6.38;2.03;;;24.70;91.90;;;;;;5019011;28;20174;-80
2022/08/28 09:35:12;;;;;;;9.43;2.40;;;24.60;91.70;;;;;;5019373;28;20173;-80
2022/08/28 09:37:40;;;;;;;9.70;2.72;;;24.90;91.00;;;;;;5019227;28;20209;-80
2022/08/28 09:40:26;;;;;;;7.40;2.42;;;24.70;91.90;;;;;;5019240;28;20634;-80
2022/08/28 09:43:27;;;;;;;6.82;2.20;;;24.20;91.00;;;;;;5018930;28;20174;-80
2022/08/28 09:46:04;;;;;;;3.60;1.90;;;24.40;91.80;;;;;;5006629;28;20201;-80
2022/08/28 09:48:44;;;;;;;7.22;2.20;;;24.80;90.60;;;;;;5019401;28;20264;-80
2022/08/28 09:51:27;;;;;;;6.25;1.95;;;24.70;90.20;;;;;;5018767;28;20336;-80
2022/08/28 09:53:53;;;;;;;6.05;2.15;;;23.80;91.30;;;;;;5018944;28;20324;-80
2022/08/28 09:56:30;;;;;;;8.13;2.28;;;24.50;91.10;;;;;;5018510;28;20226;-80
2022/08/28 09:59:09;;;;;;;5.95;2.03;;;24.00;91.10;;;;;;5019124;28;20689;-80
2022/08/28 10:01:47;;;;;;;6.05;2.15;;;24.50;91.00;;;;;;5019806;28;20189;-80
2022/08/28 10:04:16;;;;;;;5.43;2.10;;;25.50;90.20;;;;;;5019120;28;20217;-80
2022/08/28 10:06:54;;;;;;;6.70;2.05;;;25.90;88.20;;;;;;5018789;28;20192;-80
2022/08/28 10:09:33;;;;;;;6.57;2.20;;;25.50;88.80;;;;;;5018524;28;20181;-80
2022/08/28 10:11:58;;;;;;;6.63;2.58;;;24.90;90.10;;;;;;5018967;28;20173;-80
2022/08/28 10:14:37;;;;;;;4.32;2.03;;;24.80;90.00;;;;;;5018570;28;20173;-80
2022/08/28 10:17:41;;;;;;;7.25;2.30;;;25.00;88.70;;;;;;5019448;28;20190;-80
2022/08/28 10:20:22;;;;;;;5.20;2.10;;;25.60;89.70;;;;;;4960817;28;20641;-80
2022/08/28 10:23:09;;;;;;;7.07;2.03;;;25.20;87.80;;;;;;5014144;28;20229;-80
2022/08/28 10:25:56;;;;;;;4.25;1.90;;;24.10;90.20;;;;;;5018027;28;20181;-80
2022/08/28 10:28:55;;;;;;;5.68;2.25;;;24.20;90.60;;;;;;5016742;28;20244;-80
2022/08/28 10:31:39;;;;;;;6.07;2.13;;;25.40;86.20;;;;;;5015918;28;20190;-80
2022/08/28 10:34:32;;;;;;;5.30;2.05;;;24.60;88.00;;;;;;5016359;28;20179;-80
2022/08/28 10:37:08;;;;;;;8.13;2.00;;;24.40;88.50;;;;;;5016451;28;20190;-80
2022/08/28 10:39:57;;;;;;;7.47;1.83;;;25.70;85.50;;;;;;5016867;28;20181;-81
2022/08/28 10:42:29;;;;;;;4.00;1.95;;;26.60;85.10;;;;;;5018279;28;20257;-79
2022/08/28 10:45:10;;;;;;;7.68;2.20;;;26.20;85.60;;;;;;5017788;28;20658;-80
2022/08/28 10:47:41;;;;;;;9.90;2.17;;;25.60;86.30;;;;;;5017565;28;20243;-80
2022/08/28 10:50:44;;;;;;;6.70;2.17;;;25.80;86.80;;;;;;5016608;28;20201;-80
2022/08/28 10:53:19;;;;;;;8.07;2.40;;;26.10;86.40;;;;;;4997843;28;20181;-79
2022/08/28 10:56:05;;;;;;;7.57;1.95;;;25.90;84.60;;;;;;5016649;28;20173;-81
2022/08/28 10:58:35;;;;;;;6.30;2.20;;;25.90;85.50;;;;;;5016392;28;20174;-81
2022/08/28 11:01:05;;;;;;;4.57;2.10;;;25.20;84.40;;;;;;5015050;28;20194;-81
2022/08/28 11:03:40;;;;;;;3.50;2.05;;;25.60;84.30;;;;;;5018482;28;20201;-80
2022/08/28 11:06:32;;;;;;;9.57;2.40;;;24.90;85.00;;;;;;5018491;28;20198;-80
2022/08/28 11:09:23;;;;;;;3.72;2.05;;;24.90;85.30;;;;;;5009797;28;20272;-80
2022/08/28 11:11:47;;;;;;;5.95;1.85;;;25.70;84.70;;;;;;5036199;28;20182;-80
2022/08/28 11:14:35;;;;;;;5.78;2.20;;;26.00;83.90;;;;;;5019125;28;20200;-80
2022/08/28 11:17:03;;;;;;;7.20;2.13;;;25.90;82.80;;;;;;5034785;28;20198;-80
2022/08/28 11:19:39;;;;;;;9.27;2.50;;;25.80;84.10;;;;;;5034939;28;20174;-81
2022/08/28 11:22:25;;;;;;;11.35;3.10;;;25.70;82.30;;;;;;5017843;28;20200;-80
2022/08/28 11:25:10;;;;;;;8.88;1.90;;;25.60;83.50;;;;;;5017257;28;20181;-81
2022/08/28 11:27:37;;;;;;;6.43;2.30;;;25.50;83.40;;;;;;5017889;28;20190;-80
2022/08/28 11:30:28;;;;;;;8.52;2.08;;;26.10;83.30;;;;;;5017975;28;20204;-80
2022/08/28 11:32:58;;;;;;;3.80;2.20;;;26.30;83.90;;;;;;5017180;28;20174;-80
2022/08/28 11:35:35;;;;;;;5.30;2.08;;;25.70;82.50;;;;;;5018023;28;20189;-81
2022/08/28 11:38:01;;;;;;;7.07;2.10;;;24.80;83.30;;;;;;5017484;28;20272;-80
2022/08/28 11:40:27;;;;;;;5.10;2.47;;;25.60;84.50;;;;;;5017550;28;20221;-81
2022/08/28 11:43:15;;;;;;;7.10;2.03;;;26.40;82.60;;;;;;5016759;28;20174;-80
2022/08/28 11:45:46;;;;;;;7.15;2.20;;;26.50;81.30;;;;;;5016714;28;20177;-80
2022/08/28 11:48:22;;;;;;;6.13;2.67;;;26.00;82.20;;;;;;5016629;28;20217;-81
2022/08/28 11:50:55;;;;;;;4.47;2.20;;;25.80;81.70;;;;;;5016445;28;20205;-81
2022/08/28 11:53:25;;;;;;;4.63;1.98;;;27.00;81.50;;;;;;5016817;28;20184;-81
2022/08/28 11:56:00;;;;;;;7.07;1.60;;;27.60;79.00;;;;;;5016546;28;20737;-80
2022/08/28 11:58:45;;;;;;;4.50;2.10;;;28.00;78.00;;;;;;5017380;28;20174;-80
2022/08/28 12:01:13;;;;;;;9.05;1.88;;;27.60;77.10;;;;;;5017014;28;20213;-80
2022/08/28 12:03:58;;;;;;;12.10;2.38;;;25.80;79.80;;;;;;5017625;28;20185;-80
2022/08/28 12:06:49;;;;;;;5.93;2.33;;;24.70;82.70;;;;;;5016424;28;20682;-79
2022/08/28 12:09:40;;;;;;;6.20;2.20;;;25.90;81.70;;;;;;5009145;28;20706;-80
2022/08/28 12:12:58;;;;;;;6.47;2.00;;;26.60;79.50;;;;;;5010817;28;20631;-80
2022/08/28 12:15:26;;;;;;;6.10;1.98;;;26.60;81.00;;;;;;5016105;28;20669;-80
2022/08/28 12:18:07;;;;;;;4.35;1.80;;;26.30;79.70;;;;;;5022337;28;20245;-80
2022/08/28 12:20:36;;;;;;;8.50;2.42;;;25.90;80.20;;;;;;5022148;28;20237;-80
2022/08/28 12:23:22;;;;;;;6.95;2.40;;;25.60;81.50;;;;;;5037477;28;20202;-80
2022/08/28 12:25:58;;;;;;;7.80;2.20;;;24.80;82.20;;;;;;5021272;28;20174;-84
2022/08/28 12:28:36;;;;;;;5.90;1.90;;;24.50;83.00;;;;;;5023750;28;20169;-81
2022/08/28 12:31:04;;;;;;;6.78;2.03;;;25.20;82.40;;;;;;5020949;28;20267;-81
2022/08/28 12:33:33;;;;;;;5.25;2.10;;;25.80;79.00;;;;;;5022224;28;20166;-81
2022/08/28 12:36:01;;;;;;;4.00;1.83;;;25.70;82.20;;;;;;5040392;28;20220;-80
2022/08/28 12:38:31;;;;;;;4.13;1.90;;;25.60;80.70;;;;;;5025291;28;20209;-81
2022/08/28 12:40:57;;;;;;;4.30;1.90;;;25.90;79.40;;;;;;5020302;28;20205;-83
2022/08/28 12:43:26;;;;;;;4.35;1.83;;;26.20;80.30;;;;;;5016654;28;20642;-81
2022/08/28 12:45:55;;;;;;;5.15;1.73;;;25.90;81.40;;;;;;5016515;28;20198;-81
2022/08/28 12:48:23;;;;;;;4.82;1.95;;;25.60;80.00;;;;;;5018611;28;20174;-81
2022/08/28 12:51:06;;;;;;;4.72;1.90;;;25.60;81.00;;;;;;5017974;28;20222;-80
2022/08/28 12:53:42;;;;;;;5.65;2.10;;;25.80;80.00;;;;;;5018135;28;20170;-82
2022/08/28 12:56:10;;;;;;;4.40;1.80;;;25.50;81.40;;;;;;5018963;28;20204;-82
2022/08/28 12:58:38;;;;;;;7.38;2.40;;;25.50;80.00;;;;;;5017820;28;20166;-83
2022/08/28 13:01:14;;;;;;;8.05;2.00;;;24.90;81.10;;;;;;5019223;28;20240;-83
2022/08/28 13:03:56;;;;;;;4.88;1.77;;;24.60;81.00;;;;;;5024645;28;20479;-81
2022/08/28 13:06:29;;;;;;;4.70;1.83;;;24.50;81.60;;;;;;5023746;28;20705;-81